Flight Track Log - Related Links

Times and Time Zones

All times are in EDT time to prevent confusion due to time zone crossing. See the AAL2238 flight status page for this flight to view local times or setup timezone preferences in your user account.

Time Position Orientation Groundspeed Altitude Reporting Facility
EDT Latitude Longitude Course Direction KTS MPH feet Rate Location/Type
Sun 04:21:49 PM 37.6297 -97.4481 160° South 166 191 2,500  Level Kansas Center
Sun 04:23:05 PM 37.5694 -97.4658 193° South 222 255 4,900 2,409 Climbing Kansas Center
Sun 04:24:00 PM 37.3521 -97.4069 176° South  Level Estimated
Sun 04:24:06 PM 37.5036 -97.4458 166° South 241 277 8,000  Level Kansas Center
Sun 04:25:00 PM 37.2528 -97.3982 162° South  Level Estimated
Sun 04:25:10 PM 37.4311 -97.4275 169° South 264 304 10,600  Level Kansas Center
Sun 04:26:00 PM 37.1535 -97.3895 158° South  Level Estimated
Sun 04:26:11 PM 37.3428 -97.4042 168° South 316 364 12,500  Level Kansas Center
Sun 04:27:00 PM 37.0542 -97.3809 160° South  Level Estimated
Sun 04:27:12 PM 37.2461 -97.3750 166° South 350 403 15,100  Level Kansas Center
Sun 04:28:14 PM 37.1286 -97.3231 161° South 368 423 18,100 2,516 Climbing Kansas Center
Sun 04:29:16 PM 37.0283 -97.2764 160° South 381 438 20,300 2,095 Climbing Kansas Center
Sun 04:30:20 PM 36.9206 -97.2308 161° South 401 461 22,500 1,872 Climbing Kansas Center
Sun 04:31:21 PM 36.7983 -97.1789 161° South 414 476 24,200 1,694 Climbing Kansas Center
Sun 04:32:24 PM 36.6822 -97.1792 180° South 421 484 26,000 1,597 Climbing Kansas Center
Sun 04:33:25 PM 36.5642 -97.2192 195° South 436 502 27,500 1,548 Climbing Kansas Center
Sun 04:34:28 PM 36.4456 -97.2597 195° South 439 505 29,200 1,258 Climbing Kansas Center
Sun 04:35:29 PM 36.3267 -97.2983 195° South 443 510 30,100 787 Climbing Kansas Center
Sun 04:36:30 PM 36.2072 -97.3375 195° South 443 510 30,800 1,171 Climbing Kansas Center
Sun 04:37:32 PM 36.0669 -97.3822 194° South 438 504 32,500 1,238 Climbing Kansas Center
Sun 04:38:36 PM 35.9514 -97.4200 195° South 432 497 33,400 763 Climbing Kansas Center
Sun 04:39:30 PM 35.8358 -97.4597 196° South 436 502 34,000 316 Climbing Fort Center
Sun 04:40:30 PM 35.7231 -97.4903 192° South 429 494 34,000  Level Fort Center
Sun 04:41:30 PM 35.5981 -97.4900 180° South 429 494 34,000  Level Fort Center
Sun 04:42:30 PM 35.4750 -97.4900 180° South 435 501 34,000  Level Fort Center
Sun 04:43:30 PM 35.3625 -97.4847 178° South 446 513 34,000  Level Fort Center
Sun 04:44:30 PM 35.2372 -97.4797 178° South 446 513 34,000  Level Fort Center
Sun 04:45:30 PM 35.1122 -97.4794 180° South 446 513 34,000  Level Fort Center
Sun 04:46:30 PM 34.9892 -97.4794 180° South 446 513 34,000 -150 Level Fort Center
Sun 04:47:30 PM 34.8661 -97.4742 178° South 446 513 33,700 -900 Descending Fort Center
Sun 04:48:30 PM 34.7450 -97.4717 179° South 446 513 32,200 -2,050 Descending Fort Center
Sun 04:49:30 PM 34.6156 -97.4717 180° South 446 513 29,600 -2,550 Descending Fort Center
Sun 04:50:30 PM 34.4947 -97.4689 179° South 446 513 27,100 -2,400 Descending Fort Center
Sun 04:51:30 PM 34.3694 -97.4639 178° South 446 513 24,800 -1,550 Descending Fort Center
Sun 04:52:30 PM 34.2567 -97.4889 190° South 435 501 24,000 -400 Descending Fort Center
Sun 04:53:30 PM 34.1483 -97.5339 199° South 418 481 24,000 -800 Level Fort Center
Sun 04:54:30 PM 34.0231 -97.5489 186° South 418 481 22,400 -1,686 Descending Fort Center
Sun 04:55:31 PM 33.9228 -97.5661 188° South 407 468 20,600 -1,983 Descending Fort Center
Sun 04:56:31 PM 33.8122 -97.5808 186° South 407 468 18,400 -2,067 Descending Fort Center
Sun 04:57:30 PM 33.7100 -97.5958 187° South 393 452 16,500 -2,200 Descending Fort Center
Sun 04:58:31 PM 33.6075 -97.6131 188° South 381 438 14,000 -2,300 Descending Fort Center
Sun 04:59:30 PM 33.5053 -97.5606 157° South 360 414 11,900 -1,563 Descending Fort Center
Sun 05:00:30 PM 33.4469 -97.4831 132° Southeast 332 382 10,900 -942 Descending Fort Center
Sun 05:01:31 PM 33.3803 -97.4036 135° Southeast 318 366 10,000 -1,050 Descending Fort Center
Sun 05:02:30 PM 33.3322 -97.3414 133° Southeast 291 335 8,800 -1,210 Descending Fort Center
Sun 05:03:30 PM 33.2675 -97.2792 141° Southeast 270 311 7,600 -1,050 Descending Fort Center
Sun 05:04:30 PM 33.2172 -97.2297 141° Southeast 265 305 6,700 -1,050 Descending Fort Center
Sun 05:05:30 PM 33.1567 -97.1703 141° Southeast 265 305 5,500 -1,250 Descending Fort Center
Sun 05:06:30 PM 33.1086 -97.1233 141° Southeast 254 292 4,200 -1,300 Descending Fort Center

Login

Don't have an account? Register now (free) for customized features, flight alerts, and more!